Time;durP1;ratioP1;P1;durP2;ratioP2;P2;SDS_P1;SDS_P2;PMS_P1;PMS_P2;Temp;Humidity;BMP_temperature;BMP_pressure;BME280_temperature;BME280_humidity;BME280_pressure;Samples;Min_cycle;Max_cycle;Signal;HPM_P1;HPM_P2
2022/06/15 00:00:14;;;;;;;0.40;0.40;;;;;;;11.32;96.21;98540.81;4761100;30;20063;-87
2022/06/15 00:03:04;;;;;;;0.40;0.40;;;;;;;11.25;96.35;98539.19;4748175;30;20590;-87
2022/06/15 00:05:43;;;;;;;0.40;0.40;;;;;;;11.26;96.51;98540.78;4757132;30;20519;-88
2022/06/15 00:08:25;;;;;;;0.40;0.40;;;;;;;11.17;96.54;98536.97;4744558;30;20330;-87
2022/06/15 00:11:17;;;;;;;0.40;0.40;;;;;;;11.15;96.98;98555.31;4766265;30;20060;-87
2022/06/15 00:14:02;;;;;;;0.40;0.40;;;;;;;11.11;96.86;98547.97;4771784;30;20091;-86
2022/06/15 00:16:44;;;;;;;0.40;0.40;;;;;;;11.09;96.97;98544.72;4759986;30;20055;-85
2022/06/15 00:19:22;;;;;;;0.40;0.40;;;;;;;11.06;97.04;98548.75;4762597;30;20064;-88
2022/06/15 00:22:08;;;;;;;0.40;0.40;;;;;;;10.91;96.89;98527.03;4751459;30;20456;-86
2022/06/15 00:25:10;;;;;;;0.40;0.40;;;;;;;10.94;97.42;98545.41;4754410;30;20056;-86
2022/06/15 00:27:46;;;;;;;0.40;0.40;;;;;;;10.86;97.38;98538.59;4758443;30;20079;-90
2022/06/15 00:30:26;;;;;;;0.40;0.40;;;;;;;10.88;97.20;98547.25;4772281;30;20058;-82
2022/06/15 00:33:00;;;;;;;0.40;0.40;;;;;;;10.80;97.24;98540.44;4762487;30;20055;-82
2022/06/15 00:35:36;;;;;;;0.40;0.40;;;;;;;10.79;97.43;98543.41;4774449;30;20051;-79
2022/06/15 00:38:09;;;;;;;0.40;0.40;;;;;;;10.72;97.16;98538.22;4765932;30;20066;-81
2022/06/15 00:40:42;;;;;;;0.40;0.40;;;;;;;10.72;97.24;98546.31;4769695;30;20096;-80
2022/06/15 00:43:38;;;;;;;0.40;0.40;;;;;;;10.76;96.61;98547.44;4749932;30;20059;-86
2022/06/15 00:46:39;;;;;;;0.50;0.50;;;;;;;10.71;96.06;98552.81;4733927;30;20066;-86
2022/06/15 00:49:32;;;;;;;0.40;0.40;;;;;;;10.68;96.17;98552.47;4749779;30;20146;-87
2022/06/15 00:52:28;;;;;;;0.40;0.40;;;;;;;10.66;95.57;98554.63;4749170;30;20126;-87
2022/06/15 00:55:08;;;;;;;0.50;0.50;;;;;;;10.62;95.79;98554.31;4736593;30;20063;-88
2022/06/15 00:57:46;;;;;;;0.40;0.40;;;;;;;10.57;95.73;98554.28;4748722;30;20432;-87
2022/06/15 01:00:33;;;;;;;0.40;0.40;;;;;;;10.51;95.47;98552.63;4750487;30;20071;-87
2022/06/15 01:03:28;;;;;;;0.50;0.50;;;;;;;10.47;96.14;98551.50;4738740;30;20056;-87
2022/06/15 01:06:08;;;;;;;;;;;;;;;10.39;96.35;98553.56;4755554;30;20109;-88
2022/06/15 01:09:10;;;;;;;0.40;0.40;;;;;;;10.38;96.84;98556.50;4752748;30;20028;-88
2022/06/15 01:11:56;;;;;;;0.50;0.50;;;;;;;10.46;96.54;98549.84;4752010;30;20543;-87
2022/06/15 01:14:58;;;;;;;0.50;0.50;;;;;;;10.44;96.38;98554.69;4739534;30;20056;-87
2022/06/15 01:17:47;;;;;;;0.50;0.50;;;;;;;10.43;95.97;98551.16;4752670;30;20302;-88
2022/06/15 01:20:43;;;;;;;0.50;0.50;;;;;;;10.47;95.44;98548.78;4768913;30;20064;-87
2022/06/15 01:23:54;;;;;;;0.50;0.50;;;;;;;10.41;95.31;98551.44;4766812;30;20060;-88
2022/06/15 01:26:59;;;;;;;0.50;0.50;;;;;;;10.34;95.16;98552.72;4738622;30;20082;-88
2022/06/15 01:29:58;;;;;;;0.50;0.50;;;;;;;10.29;95.38;98547.25;4766134;30;20164;-87
2022/06/15 01:33:06;;;;;;;0.40;0.40;;;;;;;10.31;95.14;98554.03;4751901;30;20078;-85
2022/06/15 01:36:13;;;;;;;0.40;0.40;;;;;;;10.33;94.62;98546.50;4766494;30;20052;-86
2022/06/15 01:39:04;;;;;;;0.40;0.40;;;;;;;10.28;94.47;98546.44;4764711;30;20059;-85
2022/06/15 01:41:53;;;;;;;0.45;0.45;;;;;;;10.26;94.61;98540.47;4765987;30;20127;-86
2022/06/15 01:44:42;;;;;;;0.40;0.40;;;;;;;10.25;94.54;98546.91;4738328;30;20052;-86
2022/06/15 01:47:25;;;;;;;0.50;0.50;;;;;;;10.22;94.50;98533.94;4737954;30;20056;-88
2022/06/15 01:50:23;;;;;;;0.50;0.50;;;;;;;10.34;93.61;98539.22;4766156;30;20067;-87
2022/06/15 01:53:23;;;;;;;0.50;0.50;;;;;;;10.32;93.53;98550.25;4751408;30;20078;-86
2022/06/15 01:56:35;;;;;;;0.50;0.50;;;;;;;10.33;93.27;98543.81;4736997;30;20079;-87
2022/06/15 01:59:31;;;;;;;0.50;0.50;;;;;;;10.36;92.64;98548.69;4723819;30;20052;-88
2022/06/15 02:02:19;;;;;;;0.50;0.50;;;;;;;10.35;92.65;98541.66;4751513;30;20068;-86
2022/06/15 02:05:11;;;;;;;0.47;0.47;;;;;;;10.37;92.25;98542.22;4751102;30;20060;-86
2022/06/15 02:08:06;;;;;;;0.50;0.50;;;;;;;10.42;91.57;98552.25;4751657;30;20068;-87
2022/06/15 02:11:03;;;;;;;0.50;0.50;;;;;;;10.41;91.25;98543.34;4751604;30;20443;-87
2022/06/15 02:13:46;;;;;;;;;;;;;;;10.46;91.11;98547.97;4737459;30;20060;-87
2022/06/15 02:16:48;;;;;;;0.50;0.50;;;;;;;10.52;90.19;98552.34;4752357;30;19930;-87
2022/06/15 02:19:32;;;;;;;0.40;0.40;;;;;;;10.51;89.91;98537.25;4725385;30;20053;-88
2022/06/15 02:22:15;;;;;;;0.40;0.40;;;;;;;10.58;89.78;98547.81;4740056;30;20078;-89
2022/06/15 02:24:54;;;;;;;0.50;0.50;;;;;;;10.58;89.74;98542.41;4753113;30;20083;-88
2022/06/15 02:27:29;;;;;;;0.50;0.50;;;;;;;10.65;89.21;98543.00;4724205;30;20052;-87
2022/06/15 02:30:10;;;;;;;0.40;0.40;;;;;;;10.69;88.73;98549.53;4724107;30;20056;-87
2022/06/15 02:32:53;;;;;;;0.50;0.50;;;;;;;10.70;88.46;98543.06;4736186;30;20393;-88
2022/06/15 02:35:29;;;;;;;0.50;0.50;;;;;;;10.73;88.24;98552.53;4708872;30;20062;-87
2022/06/15 02:38:05;;;;;;;0.45;0.45;;;;;;;10.74;87.50;98549.59;4737997;30;20088;-88
2022/06/15 02:40:42;;;;;;;0.50;0.50;;;;;;;10.77;87.63;98549.06;4751227;30;20078;-88
2022/06/15 02:43:23;;;;;;;0.50;0.50;;;;;;;10.76;87.46;98539.34;4750826;30;20432;-87
2022/06/15 02:45:59;;;;;;;0.50;0.50;;;;;;;10.88;87.31;98559.94;4737466;30;20063;-88
2022/06/15 02:48:42;;;;;;;0.50;0.50;;;;;;;10.90;86.97;98553.22;4751361;30;20120;-87
2022/06/15 02:51:49;;;;;;;0.50;0.50;;;;;;;10.99;86.10;98553.56;4753221;30;20398;-87
2022/06/15 02:54:49;;;;;;;0.50;0.50;;;;;;;11.06;85.83;98554.16;4754134;30;20052;-89
2022/06/15 02:57:42;;;;;;;0.50;0.50;;;;;;;11.07;84.82;98553.91;4753352;30;20465;-89
2022/06/15 03:00:24;;;;;;;0.50;0.50;;;;;;;11.07;84.65;98553.09;4736618;30;20060;-88
2022/06/15 03:03:04;;;;;;;0.50;0.50;;;;;;;11.10;83.33;98552.56;4750378;30;20147;-88
2022/06/15 03:05:47;;;;;;;0.47;0.47;;;;;;;11.17;83.45;98568.56;4737317;30;20095;-86
2022/06/15 03:08:28;;;;;;;0.50;0.50;;;;;;;11.21;83.30;98564.25;4751540;30;20056;-87
2022/06/15 03:11:12;;;;;;;0.50;0.50;;;;;;;11.24;83.01;98569.97;4751193;30;20056;-87
2022/06/15 03:13:46;;;;;;;0.50;0.50;;;;;;;11.29;81.66;98574.56;4750742;30;20074;-88
2022/06/15 03:16:24;;;;;;;0.50;0.50;;;;;;;11.30;81.88;98553.78;4750767;30;20060;-86
2022/06/15 03:19:06;;;;;;;0.50;0.50;;;;;;;11.27;81.46;98566.75;4737710;30;20056;-87
2022/06/15 03:21:42;;;;;;;0.50;0.50;;;;;;;11.30;81.20;98556.50;4750108;30;20177;-87
2022/06/15 03:24:32;;;;;;;0.50;0.50;;;;;;;11.35;81.08;98570.84;4749895;30;20058;-87
2022/06/15 03:27:18;;;;;;;0.50;0.50;;;;;;;11.42;80.40;98576.84;4737597;30;20094;-87
2022/06/15 03:29:58;;;;;;;0.50;0.50;;;;;;;11.38;80.11;98577.63;4750121;30;21005;-86
2022/06/15 03:32:39;;;;;;;0.50;0.50;;;;;;;11.38;79.91;98578.44;4737804;30;20105;-89
2022/06/15 03:35:15;;;;;;;0.50;0.50;;;;;;;11.40;80.17;98586.28;4736116;30;20060;-87
2022/06/15 03:37:57;;;;;;;0.60;0.60;;;;;;;11.45;80.22;98591.72;4750279;30;20299;-88
2022/06/15 03:40:54;;;;;;;0.50;0.50;;;;;;;11.45;79.79;98573.63;4764468;30;20075;-87
2022/06/15 03:43:28;;;;;;;0.40;0.40;;;;;;;11.47;79.16;98579.56;4761986;30;20059;-88
2022/06/15 03:46:00;;;;;;;0.50;0.50;;;;;;;11.42;79.73;98576.00;4736633;30;20084;-87
2022/06/15 03:48:45;;;;;;;0.50;0.50;;;;;;;11.38;79.68;98589.22;4736682;30;20456;-89
2022/06/15 03:51:25;;;;;;;0.50;0.50;;;;;;;11.35;79.45;98578.16;4750576;30;20087;-86
2022/06/15 03:54:07;;;;;;;0.50;0.50;;;;;;;11.36;78.74;98580.56;4736578;30;20129;-85
2022/06/15 03:56:44;;;;;;;0.50;0.50;;;;;;;11.42;78.90;98576.00;4735999;30;20060;-87
2022/06/15 03:59:36;;;;;;;0.50;0.50;;;;;;;11.56;78.66;98585.28;4749626;30;20048;-87
2022/06/15 04:02:25;;;;;;;0.50;0.50;;;;;;;11.71;78.41;98574.56;4750681;30;20064;-87
2022/06/15 04:05:02;;;;;;;0.50;0.50;;;;;;;11.92;77.31;98583.66;4768373;30;20139;-89
2022/06/15 04:10:24;;;;;;;0.50;0.50;;;;;;;12.20;75.90;98576.16;4754637;30;20063;-84
2022/06/15 04:13:01;;;;;;;0.50;0.50;;;;;;;12.23;75.95;98582.94;4749158;30;20056;-87
2022/06/15 04:15:41;;;;;;;0.50;0.50;;;;;;;12.20;74.60;98599.69;4765157;30;20083;-81
2022/06/15 04:18:20;;;;;;;0.47;0.47;;;;;;;12.06;74.98;98575.03;4749965;30;20232;-82
2022/06/15 04:20:54;;;;;;;0.50;0.50;;;;;;;12.06;75.40;98567.72;4763738;30;20064;-87
2022/06/15 04:23:32;;;;;;;0.40;0.40;;;;;;;12.07;73.65;98577.47;4753666;30;20117;-86
2022/06/15 04:26:16;;;;;;;0.60;0.60;;;;;;;12.12;73.89;98582.91;4751523;30;20081;-85
2022/06/15 04:28:53;;;;;;;0.50;0.50;;;;;;;12.23;73.84;98577.53;4756795;30;20078;-86
2022/06/15 04:31:33;;;;;;;0.40;0.40;;;;;;;12.07;73.33;98576.66;4775824;30;20087;-84
2022/06/15 04:34:01;;;;;;;0.50;0.50;;;;;;;12.06;73.47;98586.66;4778152;30;20067;-86
2022/06/15 04:36:31;;;;;;;0.50;0.50;;;;;;;11.98;72.94;98584.47;4761769;30;20051;-83
2022/06/15 04:39:03;;;;;;;0.40;0.40;;;;;;;11.94;73.92;98577.97;4752704;30;20134;-81
2022/06/15 04:41:36;;;;;;;0.50;0.50;;;;;;;12.22;74.05;98576.72;4748346;30;20082;-85
2022/06/15 04:44:05;;;;;;;0.40;0.40;;;;;;;12.25;73.24;98578.06;4750627;30;20056;-88
2022/06/15 04:46:34;;;;;;;0.50;0.50;;;;;;;12.35;72.77;98589.72;4759641;30;20088;-86
2022/06/15 04:49:02;;;;;;;0.50;0.50;;;;;;;12.31;72.09;98582.44;4759834;30;20521;-86
2022/06/15 04:51:45;;;;;;;0.60;0.60;;;;;;;12.44;72.05;98586.53;4772069;30;20064;-86
2022/06/15 04:54:13;;;;;;;0.50;0.50;;;;;;;12.70;70.83;98593.59;4754669;30;20121;-86
2022/06/15 04:56:44;;;;;;;0.50;0.50;;;;;;;12.71;69.99;98586.28;4784890;30;20056;-87
2022/06/15 04:59:13;;;;;;;0.50;0.50;;;;;;;12.75;70.18;98588.19;4760880;30;20048;-86
2022/06/15 05:01:40;;;;;;;0.50;0.50;;;;;;;12.85;69.75;98592.81;4776371;30;20062;-86
2022/06/15 05:04:08;;;;;;;0.50;0.50;;;;;;;12.77;69.18;98601.47;4780911;30;20079;-85
2022/06/15 05:06:40;;;;;;;0.50;0.50;;;;;;;12.57;69.84;98577.91;4767722;30;20110;-86
2022/06/15 05:09:14;;;;;;;0.50;0.50;;;;;;;12.57;69.93;98608.47;4754811;30;20056;-86
2022/06/15 05:11:44;;;;;;;0.50;0.50;;;;;;;12.46;69.74;98584.38;4773940;30;20063;-85
2022/06/15 05:14:18;;;;;;;0.50;0.50;;;;;;;12.48;69.51;98587.59;4763586;30;20476;-86
2022/06/15 05:16:48;;;;;;;0.50;0.50;;;;;;;12.67;68.49;98601.47;4738121;30;20505;-87
2022/06/15 05:19:26;;;;;;;0.50;0.50;;;;;;;12.71;68.66;98592.53;4751481;30;20048;-84
2022/06/15 05:21:53;;;;;;;0.50;0.50;;;;;;;12.69;68.13;98581.16;4754919;30;20059;-88
2022/06/15 05:24:23;;;;;;;0.50;0.50;;;;;;;12.72;68.15;98598.78;4769313;30;20083;-84
2022/06/15 05:26:54;;;;;;;0.50;0.50;;;;;;;12.63;68.00;98578.72;4755313;30;20062;-87
2022/06/15 05:29:22;;;;;;;0.50;0.50;;;;;;;12.72;67.53;98587.94;4782417;30;20436;-88
2022/06/15 05:31:57;;;;;;;0.53;0.53;;;;;;;12.99;66.80;98599.34;4436410;29;9999728;-86
2022/06/15 05:34:24;;;;;;;0.60;0.60;;;;;;;13.33;66.16;98600.72;4757538;30;20310;-87
2022/06/15 05:36:51;;;;;;;0.50;0.50;;;;;;;13.20;66.00;98621.81;4748743;30;20078;-85
2022/06/15 05:39:18;;;;;;;0.50;0.50;;;;;;;13.19;67.14;98603.13;4762497;30;20066;-88
2022/06/15 05:41:49;;;;;;;0.55;0.55;;;;;;;13.29;66.71;98603.16;4762067;30;20056;-85
2022/06/15 05:47:06;;;;;;;0.50;0.50;;;;;;;13.19;66.05;98613.97;4755355;30;20473;-85
2022/06/15 05:49:59;;;;;;;0.50;0.50;;;;;;;13.22;66.62;98606.13;4749306;30;20084;-88
2022/06/15 05:52:35;;;;;;;0.50;0.50;;;;;;;13.24;66.10;98613.97;4754804;30;20463;-86
2022/06/15 05:55:03;;;;;;;0.50;0.50;;;;;;;13.31;66.13;98603.69;4749862;30;20533;-87
2022/06/15 05:57:31;;;;;;;0.50;0.50;;;;;;;13.33;65.82;98615.09;4757534;30;20538;-85
2022/06/15 06:00:09;;;;;;;0.50;0.50;;;;;;;13.38;65.59;98606.94;4756157;30;20143;-87
2022/06/15 06:02:40;;;;;;;0.60;0.60;;;;;;;13.70;64.45;98613.97;4743444;30;20063;-84
2022/06/15 06:05:08;;;;;;;0.50;0.50;;;;;;;13.72;64.07;98610.97;4758215;30;20048;-87
2022/06/15 06:07:37;;;;;;;0.52;0.52;;;;;;;13.76;64.73;98595.78;4754864;30;20875;-86
2022/06/15 06:10:08;;;;;;;0.50;0.50;;;;;;;14.07;63.80;98601.91;4756372;30;20219;-86
2022/06/15 06:12:36;;;;;;;0.50;0.50;;;;;;;14.37;62.67;98605.59;4763948;30;20080;-88
2022/06/15 06:15:04;;;;;;;0.60;0.60;;;;;;;14.82;60.87;98587.44;4766004;30;20055;-85
2022/06/15 06:17:33;;;;;;;0.50;0.50;;;;;;;14.64;61.11;98597.88;4765787;30;20202;-85
2022/06/15 06:20:01;;;;;;;0.50;0.50;;;;;;;14.36;62.18;98599.34;4755693;30;20056;-86
2022/06/15 06:22:29;;;;;;;0.50;0.50;;;;;;;14.63;59.86;98587.28;4757219;30;20072;-86
2022/06/15 06:24:59;;;;;;;0.50;0.50;;;;;;;14.71;58.68;98590.22;4758969;30;20054;-87
2022/06/15 06:27:26;;;;;;;0.40;0.40;;;;;;;14.34;58.84;98600.72;4759546;30;20063;-87
2022/06/15 06:29:58;;;;;;;0.50;0.50;;;;;;;13.95;61.26;98593.25;4759189;30;20072;-87
2022/06/15 06:32:25;;;;;;;0.60;0.60;;;;;;;14.21;60.62;98610.28;4761838;29;20112;-85
2022/06/15 06:34:55;;;;;;;0.45;0.45;;;;;;;13.97;60.49;98600.03;4765686;30;20113;-87
2022/06/15 06:37:23;;;;;;;0.70;0.70;;;;;;;14.15;60.75;98601.31;4755647;30;20106;-86
2022/06/15 06:39:54;;;;;;;0.50;0.50;;;;;;;14.38;59.92;98604.47;4757448;30;20079;-87
2022/06/15 06:42:21;;;;;;;0.50;0.50;;;;;;;14.21;60.71;98605.66;4760667;30;20095;-86
2022/06/15 06:44:54;;;;;;;0.60;0.60;;;;;;;14.62;59.57;98624.50;4756209;30;20071;-86
2022/06/15 06:47:21;;;;;;;0.50;0.50;;;;;;;14.90;58.75;98603.13;4771327;30;20048;-85
2022/06/15 06:49:57;;;;;;;0.50;0.50;;;;;;;15.15;58.53;98600.22;4769257;30;20105;-84
2022/06/15 06:52:24;;;;;;;0.40;0.40;;;;;;;15.12;58.57;98608.94;4756700;30;20580;-85
2022/06/15 06:54:54;;;;;;;0.50;0.50;;;;;;;15.14;57.97;98625.78;4760407;30;20113;-84
2022/06/15 06:57:23;;;;;;;0.50;0.50;;;;;;;15.04;57.70;98603.28;4756260;30;20081;-85
2022/06/15 06:59:50;;;;;;;0.60;0.60;;;;;;;15.16;57.67;98609.97;4758712;30;20520;-84
2022/06/15 07:02:18;;;;;;;0.45;0.45;;;;;;;14.97;56.93;98603.63;4761408;30;20122;-86
2022/06/15 07:04:46;;;;;;;0.50;0.50;;;;;;;14.63;57.31;98623.38;4753396;30;20072;-84
2022/06/15 07:07:13;;;;;;;0.50;0.50;;;;;;;14.54;57.88;98606.06;4760113;30;20112;-84
2022/06/15 07:09:40;;;;;;;0.60;0.60;;;;;;;14.66;58.58;98606.56;4762614;30;20469;-86
2022/06/15 07:12:08;;;;;;;0.60;0.60;;;;;;;14.97;57.67;98619.13;4756651;30;20071;-85
2022/06/15 07:14:44;;;;;;;0.43;0.43;;;;;;;15.23;56.92;98627.91;4764090;30;20060;-85
2022/06/15 07:17:11;;;;;;;0.40;0.40;;;;;;;15.07;57.25;98625.28;4758337;30;20479;-84
2022/06/15 07:19:43;;;;;;;0.65;0.65;;;;;;;15.28;56.20;98619.69;4752977;30;20057;-86
2022/06/15 07:22:10;;;;;;;0.50;0.50;;;;;;;15.34;56.11;98600.34;4773078;30;20059;-85
2022/06/15 07:24:38;;;;;;;0.50;0.50;;;;;;;15.28;56.17;98612.34;4766483;30;20075;-86
2022/06/15 07:27:09;;;;;;;0.50;0.50;;;;;;;15.31;56.78;98630.81;4768828;30;20087;-89
2022/06/15 07:29:39;;;;;;;0.50;0.50;;;;;;;15.38;55.78;98634.00;4767999;30;20055;-84
2022/06/15 07:32:08;;;;;;;0.40;0.40;;;;;;;15.35;56.42;98648.19;4767178;30;20086;-86
2022/06/15 07:34:36;;;;;;;0.50;0.50;;;;;;;15.47;55.89;98644.25;4769023;30;20063;-85
2022/06/15 07:37:03;;;;;;;0.50;0.50;;;;;;;15.40;55.53;98633.72;4767439;30;20052;-86
2022/06/15 07:39:30;;;;;;;0.50;0.50;;;;;;;15.42;55.67;98637.00;4768774;30;20064;-84
2022/06/15 07:42:01;;;;;;;0.50;0.50;;;;;;;15.63;56.11;98629.44;4767810;30;20059;-86
2022/06/15 07:44:28;;;;;;;0.50;0.50;;;;;;;15.54;54.11;98631.16;4769398;30;20397;-84
2022/06/15 07:49:54;;;;;;;0.60;0.60;;;;;;;15.61;55.44;98629.72;4768533;30;20577;-85
2022/06/15 07:52:43;;;;;;;0.40;0.40;;;;;;;15.27;55.40;98629.75;4767334;30;20222;-85
2022/06/15 07:55:13;;;;;;;0.60;0.60;;;;;;;15.25;56.04;98633.88;4767524;30;20409;-85
2022/06/15 07:57:41;;;;;;;0.60;0.60;;;;;;;15.62;55.57;98614.22;4768428;30;20060;-86
2022/06/15 08:00:13;;;;;;;0.70;0.70;;;;;;;16.02;54.88;98637.50;4767591;30;20158;-85
2022/06/15 08:02:42;;;;;;;0.40;0.40;;;;;;;16.28;54.29;98637.22;4767069;30;20059;-84
2022/06/15 08:05:10;;;;;;;0.60;0.60;;;;;;;16.69;53.27;98648.41;4767289;30;20045;-85
2022/06/15 08:07:37;;;;;;;0.50;0.50;;;;;;;16.82;52.85;98636.00;4767872;30;20522;-86
2022/06/15 08:10:05;;;;;;;0.50;0.50;;;;;;;16.79;52.19;98666.56;4767986;30;20052;-87
2022/06/15 08:12:33;;;;;;;0.40;0.40;;;;;;;16.55;52.38;98672.00;4768813;30;20060;-85
2022/06/15 08:15:03;;;;;;;0.40;0.40;;;;;;;16.35;52.86;98654.00;4767718;30;20059;-85
2022/06/15 08:17:53;;;;;;;0.40;0.40;;;;;;;16.16;53.25;98672.22;4767840;30;20059;-85
2022/06/15 08:20:35;;;;;;;0.30;0.30;;;;;;;15.87;54.60;98637.66;4768978;30;20464;-85
2022/06/15 08:23:12;;;;;;;0.40;0.40;;;;;;;15.73;55.12;98648.41;4768266;30;20139;-85
2022/06/15 08:25:43;;;;;;;0.40;0.40;;;;;;;15.67;54.70;98651.44;4767599;30;20066;-85
2022/06/15 08:28:11;;;;;;;0.40;0.40;;;;;;;15.53;54.40;98657.53;4768759;30;20545;-85
2022/06/15 08:30:38;;;;;;;0.50;0.50;;;;;;;15.54;54.52;98661.06;4769622;30;20060;-84
2022/06/15 08:33:09;;;;;;;0.43;0.43;;;;;;;15.81;54.97;98671.47;4769141;30;20151;-86
2022/06/15 08:35:38;;;;;;;0.60;0.60;;;;;;;16.25;54.19;98673.19;4769457;30;20431;-86
2022/06/15 08:38:09;;;;;;;0.70;0.70;;;;;;;16.45;52.73;98669.41;4769899;30;20060;-86
2022/06/15 08:40:44;;;;;;;0.70;0.70;;;;;;;16.96;51.86;98659.78;4769518;30;20067;-85
2022/06/15 08:43:27;;;;;;;0.80;0.80;;;;;;;17.64;50.40;98661.97;4768833;30;20063;-86
2022/06/15 08:45:58;;;;;;;0.70;0.70;;;;;;;17.98;49.27;98660.88;4760834;30;20064;-82
2022/06/15 08:48:59;;;;;;;0.40;0.40;;;;;;;17.05;49.94;98715.25;4752361;30;20106;-84
2022/06/15 08:51:36;;;;;;;0.80;0.80;;;;;;;16.88;49.82;98659.31;4739455;30;20110;-82
2022/06/15 08:54:07;;;;;;;0.90;0.90;;;;;;;17.11;49.44;98675.91;4750817;30;20056;-82
2022/06/15 08:56:46;;;;;;;0.40;0.40;;;;;;;16.70;50.81;98660.09;4743911;30;20055;-83
2022/06/15 08:59:21;;;;;;;0.40;0.40;;;;;;;16.47;52.36;98661.75;4746743;30;20052;-82
2022/06/15 09:01:59;;;;;;;0.40;0.40;;;;;;;16.58;51.88;98681.50;4758409;30;20539;-82
2022/06/15 09:04:32;;;;;;;0.90;0.90;;;;;;;17.19;51.05;98697.06;4769937;30;20063;-82
2022/06/15 09:07:25;;;;;;;0.40;0.40;;;;;;;17.57;49.75;98664.25;4765499;30;20052;-83
2022/06/15 09:10:02;;;;;;;0.80;0.80;;;;;;;18.19;47.98;98666.75;4763224;30;20113;-83
2022/06/15 09:12:58;;;;;;;0.75;0.75;;;;;;;18.54;47.50;98665.22;4753819;30;20456;-82
2022/06/15 09:16:00;;;;;;;0.73;0.73;;;;;;;19.17;46.97;98662.78;4756161;30;20449;-83
2022/06/15 09:18:31;;;;;;;0.70;0.70;;;;;;;18.75;46.96;98673.81;4761417;30;20436;-83
2022/06/15 09:21:10;;;;;;;0.70;0.70;;;;;;;18.96;45.79;98695.25;4750030;30;20118;-83
2022/06/15 09:23:46;;;;;;;0.70;0.70;;;;;;;19.21;46.10;98683.72;4750512;30;20083;-82
2022/06/15 09:26:25;;;;;;;0.90;0.90;;;;;;;19.40;45.63;98669.88;4768128;30;20085;-82
2022/06/15 09:29:12;;;;;;;0.50;0.50;;;;;;;19.07;44.52;98663.03;4765664;30;20067;-82
2022/06/15 09:31:49;;;;;;;0.40;0.40;;;;;;;17.88;47.30;98670.03;4754391;30;20405;-84
2022/06/15 09:34:48;;;;;;;0.40;0.40;;;;;;;17.36;48.84;98671.19;4750772;30;20167;-83
2022/06/15 09:37:20;;;;;;;0.50;0.50;;;;;;;17.47;49.62;98678.91;4759782;30;20146;-83
2022/06/15 09:39:48;;;;;;;0.40;0.40;;;;;;;17.80;49.36;98673.47;4754925;30;20530;-82
2022/06/15 09:42:21;;;;;;;0.50;0.50;;;;;;;17.90;48.59;98697.03;4744612;30;20549;-83
2022/06/15 09:45:02;;;;;;;0.40;0.40;;;;;;;18.26;48.25;98688.19;4733196;30;20494;-81
2022/06/15 09:47:33;;;;;;;0.40;0.40;;;;;;;18.23;47.29;98721.56;4748651;30;20102;-83
2022/06/15 09:50:27;;;;;;;0.40;0.40;;;;;;;17.93;47.44;98685.53;4760736;30;20146;-83
2022/06/15 09:53:22;;;;;;;0.70;0.70;;;;;;;18.05;47.15;98698.69;4779318;30;20481;-85
2022/06/15 09:55:55;;;;;;;1.00;1.00;;;;;;;18.26;46.79;98663.63;4756557;30;20129;-82
2022/06/15 09:58:54;;;;;;;0.90;0.90;;;;;;;19.63;44.28;98710.94;4759812;30;20134;-83
2022/06/15 10:01:25;;;;;;;0.85;0.85;;;;;;;20.12;42.28;98671.59;4761855;30;20367;-83
2022/06/15 10:03:55;;;;;;;0.90;0.90;;;;;;;20.09;42.86;98672.25;4753763;30;20142;-84
2022/06/15 10:06:36;;;;;;;0.40;0.40;;;;;;;19.12;45.29;98682.06;4758535;30;20060;-84
2022/06/15 10:09:06;;;;;;;0.30;0.30;;;;;;;18.50;46.42;98675.13;4768551;30;20059;-83
2022/06/15 10:11:40;;;;;;;0.40;0.40;;;;;;;18.42;47.45;98673.13;4761914;30;20056;-84
2022/06/15 10:14:27;;;;;;;0.40;0.40;;;;;;;18.74;47.03;98671.38;4761426;30;20524;-83
2022/06/15 10:17:18;;;;;;;0.40;0.40;;;;;;;18.40;47.53;98706.19;4756073;30;20143;-83
2022/06/15 10:19:48;;;;;;;0.40;0.40;;;;;;;18.37;47.82;98700.53;4766654;30;20509;-85
2022/06/15 10:22:29;;;;;;;0.40;0.40;;;;;;;18.12;46.68;98686.25;4779062;30;20056;-84
2022/06/15 10:24:58;;;;;;;0.30;0.30;;;;;;;17.82;46.29;98728.56;4756574;30;20488;-83
2022/06/15 10:27:33;;;;;;;0.38;0.38;;;;;;;17.53;47.65;98715.09;4763820;30;20170;-83
2022/06/15 10:30:20;;;;;;;0.40;0.40;;;;;;;17.71;48.17;98724.34;4766703;30;20428;-84
2022/06/15 10:33:13;;;;;;;0.40;0.40;;;;;;;17.79;48.22;98701.03;4761061;30;20071;-87
2022/06/15 10:35:54;;;;;;;0.50;0.50;;;;;;;17.85;48.50;98710.75;4750960;30;20063;-85
2022/06/15 10:38:21;;;;;;;0.93;0.93;;;;;;;18.61;46.53;98712.06;4760606;30;20874;-84
2022/06/15 10:40:55;;;;;;;0.50;0.50;;;;;;;19.03;45.99;98707.38;4750292;30;20079;-84
2022/06/15 10:43:29;;;;;;;0.60;0.60;;;;;;;19.53;43.84;98702.97;4751251;30;20064;-85
2022/06/15 10:46:00;;;;;;;1.00;1.00;;;;;;;19.90;42.70;98694.41;4750380;30;20053;-84
2022/06/15 10:48:48;;;;;;;0.73;0.73;;;;;;;21.27;40.65;98699.03;4751286;30;20406;-85
2022/06/15 10:51:35;;;;;;;0.40;0.40;;;;;;;20.47;41.12;98714.78;4749954;30;20314;-85
2022/06/15 10:54:23;;;;;;;0.40;0.40;;;;;;;19.45;43.23;98712.75;4749654;30;20472;-86
2022/06/15 11:02:44;;;;;;;0.40;0.40;;;;;;;18.45;45.63;98712.69;4754346;30;20066;-85
2022/06/15 11:05:23;;;;;;;0.40;0.40;;;;;;;18.32;46.07;98709.63;4761190;30;20109;-84
2022/06/15 11:07:55;;;;;;;0.43;0.43;;;;;;;18.23;46.18;98705.16;4754650;30;20122;-84
2022/06/15 11:10:35;;;;;;;0.50;0.50;;;;;;;18.25;46.82;98705.69;4753674;30;20056;-84
2022/06/15 11:13:26;;;;;;;1.00;1.00;;;;;;;20.27;42.87;98703.25;4751240;30;20075;-85
2022/06/15 11:19:04;;;;;;;0.90;0.90;;;;;;;21.96;39.22;98697.34;4749991;30;20429;-84
2022/06/15 11:21:37;;;;;;;0.80;0.80;;;;;;;22.85;38.00;98708.47;4760045;30;20060;-84
2022/06/15 11:24:11;;;;;;;0.90;0.90;;;;;;;23.49;36.74;98704.63;4746881;30;20552;-84
2022/06/15 11:26:59;;;;;;;0.90;0.90;;;;;;;23.91;35.55;98707.34;4749541;30;20064;-85
2022/06/15 11:29:38;;;;;;;0.40;0.40;;;;;;;23.36;35.98;98698.25;4762408;30;20062;-84
2022/06/15 11:32:22;;;;;;;0.40;0.40;;;;;;;22.19;37.85;98712.50;4755780;30;20606;-84
2022/06/15 11:34:59;;;;;;;0.40;0.40;;;;;;;21.20;40.19;98687.72;4759870;30;20052;-85
2022/06/15 11:37:37;;;;;;;0.30;0.30;;;;;;;20.81;41.27;98718.78;4749726;30;20060;-84
2022/06/15 11:40:16;;;;;;;0.40;0.40;;;;;;;20.12;42.25;98714.63;4749545;30;20087;-83
2022/06/15 11:42:49;;;;;;;0.30;0.30;;;;;;;19.78;42.42;98709.78;4765869;30;20479;-83
2022/06/15 11:45:29;;;;;;;0.30;0.30;;;;;;;19.52;43.37;98715.03;4748083;30;20370;-84
2022/06/15 11:48:27;;;;;;;0.30;0.30;;;;;;;18.97;45.58;98735.97;4750113;30;20155;-84
2022/06/15 11:51:08;;;;;;;0.30;0.30;;;;;;;18.76;45.91;98715.63;4766142;30;20051;-85
2022/06/15 11:53:46;;;;;;;0.40;0.40;;;;;;;18.67;45.44;98725.63;4766888;30;20064;-86
2022/06/15 11:56:16;;;;;;;0.40;0.40;;;;;;;18.65;45.97;98719.66;4781404;30;20055;-86
2022/06/15 11:58:46;;;;;;;0.40;0.40;;;;;;;18.83;45.81;98746.09;4752392;30;20058;-85
2022/06/15 12:01:19;;;;;;;0.60;0.60;;;;;;;19.52;44.94;98734.97;4777552;30;20077;-86
2022/06/15 12:03:52;;;;;;;0.80;0.80;;;;;;;20.83;42.30;98730.25;4760456;30;20071;-86
2022/06/15 12:06:25;;;;;;;0.80;0.80;;;;;;;22.32;39.57;98720.88;4768115;30;20142;-85
2022/06/15 12:09:22;;;;;;;1.00;1.00;;;;;;;24.37;35.08;98730.19;4762095;30;20071;-85
2022/06/15 12:15:30;;;;;;;1.00;1.00;;;;;;;24.74;34.55;98721.94;4752047;30;20562;-84
2022/06/15 12:18:00;;;;;;;0.40;0.40;;;;;;;23.46;35.61;98713.56;4776490;30;20067;-84
2022/06/15 12:20:30;;;;;;;0.40;0.40;;;;;;;21.75;38.78;98746.66;4769313;30;20059;-87
2022/06/15 12:23:30;;;;;;;0.30;0.30;;;;;;;21.01;40.30;98745.63;4776258;30;20052;-84
2022/06/15 12:26:16;;;;;;;0.30;0.30;;;;;;;20.35;42.28;98740.03;4775543;30;20121;-86
2022/06/15 12:29:04;;;;;;;0.28;0.28;;;;;;;19.40;44.61;98741.03;4768664;30;20117;-84
2022/06/15 12:31:40;;;;;;;0.28;0.28;;;;;;;18.82;46.31;98731.63;4768173;30;20071;-87
2022/06/15 12:34:43;;;;;;;0.20;0.20;;;;;;;18.39;47.29;98737.38;4767356;30;20588;-86
2022/06/15 12:37:53;;;;;;;0.30;0.30;;;;;;;18.44;47.90;98739.19;4766013;30;20056;-87
2022/06/15 12:40:38;;;;;;;0.30;0.30;;;;;;;18.46;47.76;98753.38;4745358;30;20146;-87
2022/06/15 12:43:13;;;;;;;0.40;0.40;;;;;;;18.65;47.62;98733.31;4767203;30;20480;-84
2022/06/15 12:45:49;;;;;;;0.50;0.50;;;;;;;19.60;45.91;98742.47;4766095;30;20056;-85
2022/06/15 12:48:38;;;;;;;0.90;0.90;;;;;;;20.14;44.50;98754.28;4765384;30;20140;-85